createdAt,value
2022-08-25T00:00:02.471Z,68.81
2022-08-25T00:01:02.452Z,68.91
2022-08-25T00:02:03.152Z,69.01
2022-08-25T00:03:02.487Z,69.01
2022-08-25T00:04:02.431Z,69.21
2022-08-25T00:05:02.449Z,69.32
2022-08-25T00:06:02.402Z,69.42
2022-08-25T00:07:03.379Z,69.62
2022-08-25T00:08:02.419Z,69.62
2022-08-25T00:09:02.374Z,69.72
2022-08-25T00:10:02.361Z,69.72
2022-08-25T00:11:03.624Z,69.72
2022-08-25T00:12:02.343Z,69.62
2022-08-25T00:13:02.344Z,69.82
2022-08-25T00:14:02.331Z,70.02
2022-08-25T00:15:02.308Z,70.22
2022-08-25T00:16:02.325Z,70.42
2022-08-25T00:17:02.285Z,70.66
2022-08-25T00:18:02.319Z,70.66
2022-08-25T00:19:02.275Z,70.66
2022-08-25T00:20:02.251Z,70.76
2022-08-25T00:21:02.236Z,70.76
2022-08-25T00:22:02.223Z,70.86
2022-08-25T00:23:02.214Z,70.97
2022-08-25T00:24:02.205Z,70.97
2022-08-25T00:25:02.205Z,70.97
2022-08-25T00:26:02.174Z,70.86
2022-08-25T00:27:02.167Z,70.76
2022-08-25T00:28:05.274Z,70.86
2022-08-25T00:29:03.141Z,70.97
2022-08-25T00:30:02.154Z,70.86
2022-08-25T00:31:02.195Z,70.97
2022-08-25T00:32:02.105Z,70.97
2022-08-25T00:33:02.105Z,70.97
2022-08-25T00:34:02.085Z,70.86
2022-08-25T00:35:02.080Z,70.97
2022-08-25T00:36:02.095Z,70.97
2022-08-25T00:37:02.062Z,71.06
2022-08-25T00:38:02.152Z,71.06
2022-08-25T00:39:02.036Z,71.17
2022-08-25T00:40:02.051Z,71.26
2022-08-25T00:41:02.005Z,71.17
2022-08-25T00:42:02.026Z,71.26
2022-08-25T00:43:01.984Z,71.26
2022-08-25T00:44:01.975Z,71.37
2022-08-25T00:45:02.361Z,71.37
2022-08-25T00:46:01.990Z,71.37
2022-08-25T00:47:01.938Z,71.50
2022-08-25T00:48:02.049Z,71.70
2022-08-25T00:49:01.907Z,71.60
2022-08-25T00:50:01.907Z,71.70
2022-08-25T00:51:01.897Z,71.80
2022-08-25T00:52:01.885Z,72.11
2022-08-25T00:53:01.895Z,72.20
2022-08-25T00:54:01.857Z,72.31
2022-08-25T00:55:05.895Z,72.41
2022-08-25T00:56:02.837Z,72.51
2022-08-25T00:57:01.817Z,72.61
2022-08-25T00:58:01.860Z,72.61
2022-08-25T00:59:01.847Z,72.61
2022-08-25T01:00:01.802Z,72.61
2022-08-25T01:01:01.797Z,72.81
2022-08-25T01:02:01.768Z,72.81
2022-08-25T01:03:01.887Z,72.81
2022-08-25T01:04:01.759Z,72.91
2022-08-25T01:05:01.758Z,73.11
2022-08-25T01:06:01.718Z,73.11
2022-08-25T01:07:01.708Z,73.22
2022-08-25T01:08:01.739Z,73.35
2022-08-25T01:09:01.688Z,73.55
2022-08-25T01:10:01.678Z,73.55
2022-08-25T01:11:01.688Z,73.65
2022-08-25T01:12:01.658Z,74.05
2022-08-25T01:13:01.639Z,73.96
2022-08-25T01:14:01.638Z,73.96
2022-08-25T01:15:01.618Z,74.16
2022-08-25T01:16:01.707Z,74.16
2022-08-25T01:17:01.596Z,74.16
2022-08-25T01:18:01.609Z,74.26
2022-08-25T01:19:01.581Z,74.26
2022-08-25T01:20:01.561Z,74.36
2022-08-25T01:21:01.548Z,74.46
2022-08-25T01:22:01.569Z,74.56
2022-08-25T01:23:01.520Z,74.56
2022-08-25T01:24:01.521Z,74.66
2022-08-25T01:25:01.509Z,74.76
2022-08-25T01:26:01.499Z,74.87
2022-08-25T01:27:01.492Z,74.96
2022-08-25T01:28:01.532Z,74.96
2022-08-25T01:29:01.458Z,75.07
2022-08-25T01:30:01.450Z,75.07
2022-08-25T01:31:01.459Z,75.07
2022-08-25T01:32:01.430Z,75.16
2022-08-25T01:33:01.410Z,75.16
2022-08-25T01:34:01.432Z,75.27
2022-08-25T01:35:01.401Z,75.27
2022-08-25T01:36:01.380Z,75.27
2022-08-25T01:37:01.365Z,75.37
2022-08-25T01:38:01.390Z,75.37
2022-08-25T01:39:01.346Z,75.57
2022-08-25T01:40:01.408Z,75.71
2022-08-25T01:41:01.321Z,75.81
2022-08-25T01:42:01.312Z,75.91
2022-08-25T01:43:01.299Z,75.91
2022-08-25T01:44:01.291Z,75.81
2022-08-25T01:45:01.285Z,75.91
2022-08-25T01:46:01.320Z,75.91
2022-08-25T01:47:01.253Z,75.81
2022-08-25T01:48:01.259Z,75.81
2022-08-25T01:49:04.999Z,75.91
2022-08-25T01:50:02.221Z,75.91
2022-08-25T01:51:01.203Z,75.91
2022-08-25T01:52:01.212Z,76.01
2022-08-25T01:53:01.182Z,76.01
2022-08-25T01:54:01.180Z,76.11
2022-08-25T01:55:01.172Z,76.01
2022-08-25T01:56:01.152Z,76.01
2022-08-25T01:57:01.163Z,76.01
2022-08-25T01:58:01.186Z,76.11
2022-08-25T01:59:01.216Z,76.11
2022-08-25T02:00:01.112Z,76.21
2022-08-25T02:01:01.149Z,76.21
2022-08-25T02:02:01.115Z,76.21
2022-08-25T02:03:01.275Z,76.21
2022-08-25T02:04:01.064Z,76.21
2022-08-25T02:05:01.086Z,76.21
2022-08-25T02:06:01.043Z,76.21
2022-08-25T02:07:01.024Z,76.21
2022-08-25T02:08:01.022Z,76.21
2022-08-25T02:09:01.042Z,76.21
2022-08-25T02:10:03.339Z,76.31
2022-08-25T02:11:00.983Z,76.51
2022-08-25T02:12:01.106Z,76.62
2022-08-25T02:13:01.156Z,76.62
2022-08-25T02:14:01.029Z,76.51
2022-08-25T02:15:00.965Z,76.42
2022-08-25T02:16:00.929Z,76.51
2022-08-25T02:17:00.969Z,76.51
2022-08-25T02:18:00.936Z,76.62
2022-08-25T02:19:00.927Z,76.62
2022-08-25T02:20:00.909Z,76.62
2022-08-25T02:21:00.865Z,76.51
2022-08-25T02:22:00.854Z,76.72
2022-08-25T02:23:00.845Z,76.82
2022-08-25T02:24:00.834Z,76.92
2022-08-25T02:25:00.823Z,77.02
2022-08-25T02:26:00.845Z,77.12
2022-08-25T02:27:00.795Z,77.12
2022-08-25T02:28:00.915Z,77.36
2022-08-25T02:29:00.766Z,77.36
2022-08-25T02:30:00.825Z,77.56
2022-08-25T02:31:01.587Z,77.66
2022-08-25T02:32:00.786Z,77.66
2022-08-25T02:33:00.734Z,77.76
2022-08-25T02:34:00.739Z,77.86
2022-08-25T02:35:00.756Z,77.83
2022-08-25T02:36:00.697Z,77.83
2022-08-25T02:37:00.685Z,77.83
2022-08-25T02:38:00.743Z,77.83
2022-08-25T02:39:00.726Z,77.73
2022-08-25T02:40:00.688Z,77.73
2022-08-25T02:41:00.636Z,77.62
2022-08-25T02:42:00.628Z,77.53
2022-08-25T02:43:00.636Z,77.53
2022-08-25T02:44:00.617Z,77.62
2022-08-25T02:45:00.847Z,77.83
2022-08-25T02:46:00.776Z,77.83
2022-08-25T02:47:00.588Z,77.83
2022-08-25T02:48:00.622Z,77.73
2022-08-25T02:49:00.708Z,77.73
2022-08-25T02:50:00.538Z,77.73
2022-08-25T02:51:00.568Z,77.83
2022-08-25T02:52:00.561Z,78.03
2022-08-25T02:53:00.718Z,78.13
2022-08-25T02:54:00.509Z,78.23
2022-08-25T02:55:00.688Z,78.23
2022-08-25T02:56:00.476Z,78.23
2022-08-25T02:57:00.458Z,78.23
2022-08-25T02:58:00.502Z,78.33
2022-08-25T02:59:00.453Z,78.47
2022-08-25T03:00:00.433Z,78.67
2022-08-25T03:01:00.484Z,78.77
2022-08-25T03:02:00.423Z,78.77
2022-08-25T03:03:00.475Z,78.97
2022-08-25T03:04:00.417Z,79.08
2022-08-25T03:05:00.449Z,79.17
2022-08-25T03:06:00.420Z,79.38
2022-08-25T03:07:00.396Z,79.48
2022-08-25T03:08:00.359Z,79.38
2022-08-25T03:09:00.331Z,79.38
2022-08-25T03:10:00.409Z,79.58
2022-08-25T03:11:00.497Z,79.68
2022-08-25T03:12:00.304Z,79.68
2022-08-25T03:13:00.353Z,79.58
2022-08-25T03:14:00.388Z,79.82
2022-08-25T03:15:00.334Z,79.92
2022-08-25T03:16:00.250Z,79.92
2022-08-25T03:17:00.281Z,79.92
2022-08-25T03:18:00.384Z,80.22
2022-08-25T03:19:00.324Z,80.22
2022-08-25T03:20:00.275Z,80.22
2022-08-25T03:21:00.199Z,80.22
2022-08-25T03:22:00.200Z,80.32
2022-08-25T03:23:00.182Z,80.53
2022-08-25T03:24:00.171Z,80.43
2022-08-25T03:25:00.141Z,80.53
2022-08-25T03:26:00.748Z,80.53
2022-08-25T03:27:00.122Z,80.53
2022-08-25T03:28:00.135Z,80.63
2022-08-25T03:29:00.092Z,80.77
2022-08-25T03:30:00.154Z,81.07
2022-08-25T03:31:00.133Z,80.87
2022-08-25T03:32:00.321Z,80.87
2022-08-25T03:33:00.057Z,80.97
2022-08-25T03:34:00.040Z,81.17
2022-08-25T03:35:00.027Z,81.27
2022-08-25T03:36:00.043Z,81.37
2022-08-25T03:37:00.006Z,81.27
2022-08-25T03:37:59.993Z,81.37
2022-08-25T03:39:00.483Z,81.48
2022-08-25T03:40:00.038Z,81.68
2022-08-25T03:40:59.958Z,81.88
2022-08-25T03:41:59.964Z,82.12
2022-08-25T03:42:59.939Z,82.22
2022-08-25T03:43:59.953Z,82.32
2022-08-25T03:44:59.926Z,82.42
2022-08-25T03:45:59.955Z,82.53
2022-08-25T03:46:59.936Z,82.73
2022-08-25T03:48:00.174Z,82.83
2022-08-25T03:48:59.883Z,83.03
2022-08-25T03:49:59.903Z,83.13
2022-08-25T03:50:59.904Z,83.13
2022-08-25T03:51:59.894Z,83.13
2022-08-25T03:52:59.843Z,83.23
2022-08-25T03:53:59.829Z,83.33
2022-08-25T03:54:59.808Z,83.44
2022-08-25T03:55:59.811Z,83.29
2022-08-25T03:56:59.783Z,83.44
2022-08-25T03:57:59.913Z,83.54
2022-08-25T03:58:59.757Z,83.64
2022-08-25T03:59:59.746Z,83.50
2022-08-25T04:00:59.793Z,83.40
2022-08-25T04:01:59.754Z,83.29
2022-08-25T04:02:59.714Z,83.40
2022-08-25T04:03:59.712Z,83.54
2022-08-25T04:04:59.688Z,83.64
2022-08-25T04:05:59.676Z,83.64
2022-08-25T04:06:59.665Z,83.74
2022-08-25T04:07:59.688Z,83.94
2022-08-25T04:08:59.724Z,83.94
2022-08-25T04:09:59.628Z,84.04
2022-08-25T04:10:59.623Z,84.25
2022-08-25T04:11:59.605Z,84.34
2022-08-25T04:12:59.596Z,84.25
2022-08-25T04:13:59.577Z,84.25
2022-08-25T04:14:59.588Z,84.25
2022-08-25T04:15:59.562Z,84.34
2022-08-25T04:16:59.597Z,84.45
2022-08-25T04:17:59.537Z,84.55
2022-08-25T04:18:59.539Z,84.55
2022-08-25T04:19:59.538Z,84.55
2022-08-25T04:20:59.505Z,84.55
2022-08-25T04:21:59.494Z,84.55
2022-08-25T04:22:59.487Z,84.65
2022-08-25T04:23:59.467Z,84.65
2022-08-25T04:24:59.477Z,84.65
2022-08-25T04:25:59.501Z,84.65
2022-08-25T04:26:59.442Z,84.85
2022-08-25T04:27:59.542Z,85.25
2022-08-25T04:28:59.428Z,85.36
2022-08-25T04:29:59.406Z,85.76
2022-08-25T04:30:59.402Z,85.66
2022-08-25T04:31:59.431Z,85.66
2022-08-25T04:32:59.367Z,85.66
2022-08-25T04:33:59.365Z,85.86
2022-08-25T04:34:59.347Z,85.96
2022-08-25T04:35:59.338Z,85.86
2022-08-25T04:36:59.343Z,85.56
2022-08-25T04:38:06.450Z,85.25
2022-08-25T04:38:59.302Z,85.22
2022-08-25T04:39:59.326Z,85.02
2022-08-25T04:41:01.903Z,84.81
2022-08-25T04:41:59.632Z,84.71
2022-08-25T04:42:59.261Z,84.61
2022-08-25T04:43:59.244Z,84.71
2022-08-25T04:44:59.236Z,84.61
2022-08-25T04:45:59.289Z,84.61
2022-08-25T04:46:59.213Z,84.51
2022-08-25T04:47:59.213Z,84.51
2022-08-25T04:48:59.183Z,84.65
2022-08-25T04:49:59.173Z,84.65
2022-08-25T04:50:59.164Z,84.75
2022-08-25T04:51:59.154Z,84.85
2022-08-25T04:52:59.163Z,84.95
2022-08-25T04:53:59.124Z,84.95
2022-08-25T04:54:59.115Z,84.95
2022-08-25T04:56:03.226Z,84.95
2022-08-25T04:56:59.094Z,85.02
2022-08-25T04:57:59.090Z,84.91
2022-08-25T04:58:59.092Z,84.91
2022-08-25T04:59:59.055Z,84.91
2022-08-25T05:00:59.068Z,84.81
2022-08-25T05:01:59.035Z,84.71
2022-08-25T05:02:59.034Z,84.71
2022-08-25T05:03:59.058Z,84.71
2022-08-25T05:04:59.005Z,84.61
2022-08-25T05:05:58.985Z,84.51
2022-08-25T05:06:58.986Z,84.51
2022-08-25T05:07:59.050Z,84.31
2022-08-25T05:08:58.956Z,84.31
2022-08-25T05:09:58.956Z,84.41
2022-08-25T05:10:58.935Z,84.31
2022-08-25T05:11:58.919Z,84.41
2022-08-25T05:12:58.915Z,84.31
2022-08-25T05:13:58.903Z,84.31
2022-08-25T05:14:58.913Z,84.41
2022-08-25T05:16:00.233Z,84.37
2022-08-25T05:16:58.869Z,84.37
2022-08-25T05:17:58.857Z,84.37
2022-08-25T05:18:58.846Z,84.27
2022-08-25T05:19:58.834Z,84.06
2022-08-25T05:20:58.836Z,83.82
2022-08-25T05:21:58.808Z,83.72
2022-08-25T05:22:58.810Z,83.52
2022-08-25T05:23:58.787Z,83.42
2022-08-25T05:24:58.777Z,83.32
2022-08-25T05:25:58.785Z,83.28
2022-08-25T05:26:58.757Z,83.28
2022-08-25T05:27:58.838Z,83.07
2022-08-25T05:28:58.737Z,82.98
2022-08-25T05:29:58.719Z,82.78
2022-08-25T05:30:58.715Z,82.57
2022-08-25T05:31:58.753Z,82.47
2022-08-25T05:32:58.700Z,82.33
2022-08-25T05:33:58.678Z,82.33
2022-08-25T05:34:58.669Z,82.13
2022-08-25T05:35:58.647Z,82.03
2022-08-25T05:36:58.677Z,81.93
2022-08-25T05:37:58.628Z,81.93
2022-08-25T05:38:58.618Z,81.82
2022-08-25T05:39:58.618Z,81.73
2022-08-25T05:40:58.609Z,81.68
2022-08-25T05:41:58.589Z,81.59
2022-08-25T05:42:58.600Z,81.38
2022-08-25T05:43:58.559Z,81.18
2022-08-25T05:44:58.550Z,80.94
2022-08-25T05:45:58.651Z,80.94
2022-08-25T05:46:58.528Z,80.84
2022-08-25T05:47:58.511Z,80.64
2022-08-25T05:48:58.522Z,80.44
2022-08-25T05:49:58.490Z,80.30
2022-08-25T05:50:58.480Z,80.00
2022-08-25T05:51:58.469Z,79.80
2022-08-25T05:52:58.462Z,79.69
2022-08-25T05:53:58.447Z,79.36
2022-08-25T05:54:58.460Z,78.96
2022-08-25T05:55:58.420Z,78.75
2022-08-25T05:56:58.421Z,78.41
2022-08-25T05:57:58.400Z,77.81
2022-08-25T05:58:58.392Z,77.61
2022-08-25T05:59:58.379Z,77.31
2022-08-25T06:00:58.442Z,77.17
2022-08-25T06:01:58.359Z,76.87
2022-08-25T06:02:58.350Z,76.76
2022-08-25T06:03:58.379Z,76.32
2022-08-25T06:04:58.324Z,76.03
2022-08-25T06:05:58.332Z,75.72
2022-08-25T06:06:58.301Z,75.49
2022-08-25T06:07:58.289Z,75.18
2022-08-25T06:08:58.282Z,74.78
2022-08-25T06:09:58.271Z,74.65
2022-08-25T06:10:58.261Z,74.15
2022-08-25T06:11:58.274Z,74.01
2022-08-25T06:12:58.242Z,73.71
2022-08-25T06:13:58.223Z,73.27
2022-08-25T06:14:58.213Z,72.67
2022-08-25T06:15:58.243Z,71.83
2022-08-25T06:16:58.193Z,71.09
2022-08-25T06:18:00.958Z,70.36
2022-08-25T06:18:58.176Z,70.12
2022-08-25T06:19:58.156Z,69.62
2022-08-25T06:20:58.152Z,68.79
2022-08-25T06:21:58.134Z,68.05
2022-08-25T06:22:58.123Z,66.89
2022-08-25T06:23:58.125Z,65.03
2022-08-25T06:24:58.106Z,63.27
2022-08-25T06:25:58.105Z,61.82
2022-08-25T06:26:58.086Z,60.46
2022-08-25T06:27:58.066Z,59.11
2022-08-25T06:28:58.116Z,58.26
2022-08-25T06:29:58.046Z,56.81
2022-08-25T06:30:59.036Z,55.24
2022-08-25T06:31:58.077Z,53.58
2022-08-25T06:32:58.016Z,51.84
2022-08-25T06:33:57.997Z,50.93
2022-08-25T06:34:58.036Z,50.41
2022-08-25T06:35:57.977Z,50.01
2022-08-25T06:36:57.968Z,49.96
2022-08-25T06:37:57.957Z,48.86
2022-08-25T06:38:57.949Z,48.78
2022-08-25T06:39:58.111Z,48.68
2022-08-25T06:40:57.926Z,49.37
2022-08-25T06:41:57.908Z,48.66
2022-08-25T06:42:57.899Z,47.85
2022-08-25T06:44:05.218Z,47.72
2022-08-25T06:44:58.907Z,47.01
2022-08-25T06:45:57.868Z,46.50
2022-08-25T06:46:57.892Z,46.08
2022-08-25T06:47:57.851Z,45.76
2022-08-25T06:48:57.841Z,45.47
2022-08-25T06:49:57.829Z,45.67
2022-08-25T06:50:57.840Z,45.56
2022-08-25T06:51:57.802Z,44.85
2022-08-25T06:52:57.799Z,44.64
2022-08-25T06:53:57.783Z,44.62
2022-08-25T06:54:57.780Z,44.20
2022-08-25T06:55:57.772Z,43.69
2022-08-25T06:56:57.781Z,42.98
2022-08-25T06:57:57.744Z,42.57
2022-08-25T06:58:57.733Z,42.25
2022-08-25T06:59:57.723Z,42.13
2022-08-25T07:00:57.758Z,41.25
2022-08-25T07:01:57.764Z,41.94
2022-08-25T07:02:57.716Z,41.42
2022-08-25T07:03:57.775Z,41.42
2022-08-25T07:04:57.675Z,40.92
2022-08-25T07:05:57.655Z,41.03
2022-08-25T07:06:57.647Z,41.96
2022-08-25T07:07:57.643Z,43.05
2022-08-25T07:08:57.647Z,42.76
2022-08-25T07:09:57.607Z,42.96
2022-08-25T07:10:57.615Z,42.76
2022-08-25T07:11:57.596Z,42.57
2022-08-25T07:12:57.588Z,42.65
2022-08-25T07:13:57.575Z,42.33
2022-08-25T07:15:18.949Z,41.62
2022-08-25T07:15:58.571Z,41.23
2022-08-25T07:16:57.550Z,41.00
2022-08-25T07:17:57.531Z,40.39
2022-08-25T07:18:57.529Z,40.39
2022-08-25T07:19:57.784Z,41.29
2022-08-25T07:20:57.547Z,41.60
2022-08-25T07:21:57.489Z,42.11
2022-08-25T07:22:57.480Z,42.21
2022-08-25T07:23:57.470Z,42.09
2022-08-25T07:24:57.469Z,42.17
2022-08-25T07:25:57.454Z,41.07
2022-08-25T07:26:57.462Z,41.60
2022-08-25T07:27:59.034Z,42.60
2022-08-25T07:28:57.422Z,43.02
2022-08-25T07:29:57.413Z,43.31
2022-08-25T07:30:57.453Z,43.82
2022-08-25T07:31:57.462Z,44.21
2022-08-25T07:32:57.434Z,43.60
2022-08-25T07:33:57.365Z,43.51
2022-08-25T07:34:57.356Z,43.52
2022-08-25T07:35:57.356Z,44.41
2022-08-25T07:36:57.336Z,43.99
2022-08-25T07:37:57.325Z,43.48
2022-08-25T07:38:57.334Z,42.88
2022-08-25T07:39:57.436Z,42.85
2022-08-25T07:40:57.297Z,42.76
2022-08-25T07:41:57.284Z,42.83
2022-08-25T07:42:57.285Z,41.62
2022-08-25T07:43:57.256Z,40.89
2022-08-25T07:44:57.277Z,40.89
2022-08-25T07:45:57.241Z,40.48
2022-08-25T07:46:57.318Z,39.86
2022-08-25T07:47:57.227Z,39.86
2022-08-25T07:48:57.218Z,39.84
2022-08-25T07:49:57.206Z,39.82
2022-08-25T07:50:57.218Z,39.22
2022-08-25T07:52:03.983Z,38.71
2022-08-25T07:52:58.178Z,38.81
2022-08-25T07:53:57.169Z,38.40
2022-08-25T07:54:57.158Z,37.92
2022-08-25T07:55:57.183Z,37.92
2022-08-25T07:56:57.148Z,37.93
2022-08-25T07:57:57.419Z,39.37
2022-08-25T07:58:57.140Z,41.23
2022-08-25T07:59:57.103Z,42.66
2022-08-25T08:00:57.090Z,43.13
2022-08-25T08:01:57.165Z,42.69
2022-08-25T08:02:57.144Z,42.07
2022-08-25T08:04:00.413Z,41.35
2022-08-25T08:04:58.075Z,39.96
2022-08-25T08:05:57.042Z,40.27
2022-08-25T08:06:57.024Z,40.88
2022-08-25T08:07:57.045Z,41.82
2022-08-25T08:08:58.914Z,43.54
2022-08-25T08:10:32.859Z,43.91
2022-08-25T08:11:04.477Z,43.34
2022-08-25T08:11:57.985Z,43.71
2022-08-25T08:12:56.966Z,42.40
2022-08-25T08:13:56.975Z,41.97
2022-08-25T08:14:56.945Z,40.95
2022-08-25T08:15:56.958Z,40.23
2022-08-25T08:16:56.927Z,39.53
2022-08-25T08:17:56.921Z,40.13
2022-08-25T08:18:56.926Z,39.76
2022-08-25T08:19:56.897Z,39.76
2022-08-25T08:20:56.885Z,39.86
2022-08-25T08:21:56.903Z,39.86
2022-08-25T08:22:56.867Z,40.13
2022-08-25T08:23:58.958Z,39.96
2022-08-25T08:24:56.860Z,40.76
2022-08-25T08:25:56.851Z,40.88
2022-08-25T08:26:58.953Z,41.07
2022-08-25T08:27:56.823Z,41.60
2022-08-25T08:28:56.809Z,42.21
2022-08-25T08:29:56.798Z,42.09
2022-08-25T08:30:56.819Z,41.58
2022-08-25T08:31:56.778Z,41.58
2022-08-25T08:33:09.588Z,42.46
2022-08-25T08:33:57.761Z,41.36
2022-08-25T08:34:56.742Z,41.97
2022-08-25T08:35:56.791Z,42.60
2022-08-25T08:36:56.734Z,42.91
2022-08-25T08:37:56.713Z,42.79
2022-08-25T08:38:56.715Z,42.79
2022-08-25T08:39:56.721Z,42.69
2022-08-25T08:40:56.683Z,42.58
2022-08-25T08:42:11.276Z,41.97
2022-08-25T08:42:57.665Z,41.35
2022-08-25T08:43:56.719Z,40.72
2022-08-25T08:44:58.101Z,39.24
2022-08-25T08:45:56.655Z,39.62
2022-08-25T08:46:56.779Z,39.53
2022-08-25T08:47:56.635Z,39.20
2022-08-25T08:48:56.596Z,39.31
2022-08-25T08:49:56.595Z,39.86
2022-08-25T08:50:56.582Z,41.19
2022-08-25T08:51:56.576Z,41.60
2022-08-25T08:52:56.586Z,42.21
2022-08-25T08:53:57.117Z,42.21
2022-08-25T08:54:56.537Z,42.71
2022-08-25T08:55:56.537Z,42.29
2022-08-25T08:56:56.518Z,41.89
2022-08-25T08:57:56.517Z,42.19
2022-08-25T08:58:56.537Z,42.36
2022-08-25T08:59:56.500Z,41.87
2022-08-25T09:00:56.498Z,41.56
2022-08-25T09:01:56.595Z,41.87
2022-08-25T09:02:56.500Z,42.58
2022-08-25T09:03:56.448Z,42.36
2022-08-25T09:04:56.449Z,41.95
2022-08-25T09:05:56.430Z,42.16
2022-08-25T09:06:56.420Z,42.48
2022-08-25T09:07:56.413Z,42.79
2022-08-25T09:08:56.396Z,42.89
2022-08-25T09:09:56.409Z,42.99
2022-08-25T09:10:56.372Z,42.99
2022-08-25T09:11:56.362Z,43.08
2022-08-25T09:12:56.354Z,42.94
2022-08-25T09:13:56.343Z,41.93
2022-08-25T09:14:56.332Z,41.35
2022-08-25T09:15:57.563Z,41.97
2022-08-25T09:16:56.314Z,42.07
2022-08-25T09:17:56.302Z,41.89
2022-08-25T09:18:56.286Z,42.38
2022-08-25T09:19:56.283Z,43.23
2022-08-25T09:20:56.297Z,43.93
2022-08-25T09:21:56.264Z,43.52
2022-08-25T09:22:56.250Z,43.23
2022-08-25T09:23:56.246Z,43.52
2022-08-25T09:24:56.226Z,43.49
2022-08-25T09:25:56.216Z,42.99
2022-08-25T09:26:56.269Z,42.68
2022-08-25T09:27:56.197Z,41.77
2022-08-25T09:28:56.179Z,41.77
2022-08-25T09:29:56.177Z,41.67
2022-08-25T09:30:56.210Z,42.19
2022-08-25T09:31:56.158Z,42.26
2022-08-25T09:32:56.168Z,41.36
2022-08-25T09:33:56.138Z,41.36
2022-08-25T09:34:56.118Z,41.56
2022-08-25T09:35:57.318Z,41.44
2022-08-25T09:36:56.099Z,40.91
2022-08-25T09:37:56.098Z,40.23
2022-08-25T09:38:56.099Z,40.95
2022-08-25T09:39:56.120Z,41.54
2022-08-25T09:40:56.060Z,41.56
2022-08-25T09:41:56.053Z,41.66
2022-08-25T09:42:58.560Z,41.77
2022-08-25T09:43:56.051Z,42.50
2022-08-25T09:44:56.025Z,42.52
2022-08-25T09:45:56.065Z,43.52
2022-08-25T09:46:56.005Z,44.13
2022-08-25T09:47:55.992Z,44.32
2022-08-25T09:48:57.491Z,44.42
2022-08-25T09:49:55.993Z,44.32
2022-08-25T09:50:55.968Z,44.76
2022-08-25T09:51:55.955Z,44.95
2022-08-25T09:52:55.935Z,45.54
2022-08-25T09:53:55.940Z,44.85
2022-08-25T09:54:55.914Z,45.66
2022-08-25T09:56:00.076Z,45.98
2022-08-25T09:56:55.896Z,46.78
2022-08-25T09:57:55.887Z,46.78
2022-08-25T09:58:58.171Z,46.49
2022-08-25T09:59:57.766Z,46.49
2022-08-25T10:00:55.877Z,47.10
2022-08-25T10:01:55.898Z,46.95
2022-08-25T10:02:55.835Z,46.54
2022-08-25T10:03:55.829Z,45.95
2022-08-25T10:04:55.906Z,45.98
2022-08-25T10:05:56.281Z,46.39
2022-08-25T10:06:55.818Z,45.80
2022-08-25T10:07:55.778Z,44.55
2022-08-25T10:08:55.770Z,44.87
2022-08-25T10:09:55.760Z,45.57
2022-08-25T10:10:55.749Z,46.31
2022-08-25T10:11:57.624Z,47.00
2022-08-25T10:12:55.750Z,47.02
2022-08-25T10:13:55.721Z,47.22
2022-08-25T10:14:55.707Z,47.41
2022-08-25T10:15:55.726Z,47.73
2022-08-25T10:16:55.691Z,47.63
2022-08-25T10:17:55.680Z,47.71
2022-08-25T10:18:55.691Z,47.71
2022-08-25T10:19:55.662Z,47.51
2022-08-25T10:20:55.642Z,47.22
2022-08-25T10:21:55.640Z,46.80
2022-08-25T10:22:55.622Z,47.29
2022-08-25T10:23:55.624Z,46.09
2022-08-25T10:24:55.624Z,44.98
2022-08-25T10:25:59.377Z,45.38
2022-08-25T10:26:56.601Z,45.70
2022-08-25T10:27:55.575Z,46.17
2022-08-25T10:28:55.565Z,45.67
2022-08-25T10:29:55.576Z,45.09
2022-08-25T10:30:55.620Z,45.70
2022-08-25T10:31:55.545Z,45.87
2022-08-25T10:32:55.517Z,45.28
2022-08-25T10:33:55.514Z,45.38
2022-08-25T10:34:55.497Z,44.87
2022-08-25T10:35:55.546Z,45.26
2022-08-25T10:36:56.131Z,45.16
2022-08-25T10:37:55.466Z,45.36
2022-08-25T10:39:02.506Z,45.14
2022-08-25T10:39:55.870Z,44.16
2022-08-25T10:40:55.436Z,44.94
2022-08-25T10:41:55.477Z,44.55
2022-08-25T10:42:55.418Z,44.77
2022-08-25T10:43:55.407Z,45.48
2022-08-25T10:44:55.397Z,45.28
2022-08-25T10:45:55.448Z,45.10
2022-08-25T10:46:55.378Z,46.21
2022-08-25T10:47:55.378Z,46.62
2022-08-25T10:48:55.350Z,47.31
2022-08-25T10:49:55.377Z,46.92
2022-08-25T10:50:55.330Z,47.34
2022-08-25T10:51:55.319Z,47.22
2022-08-25T10:52:55.330Z,47.02
2022-08-25T10:53:55.300Z,47.31
2022-08-25T10:54:55.289Z,46.50
2022-08-25T10:55:55.279Z,46.58
2022-08-25T10:56:57.471Z,46.46
2022-08-25T10:57:56.281Z,46.58
2022-08-25T10:58:55.242Z,46.68
2022-08-25T10:59:55.240Z,47.00
2022-08-25T11:00:55.282Z,47.51
2022-08-25T11:01:55.273Z,48.08
2022-08-25T11:02:55.205Z,46.90
2022-08-25T11:03:55.275Z,45.60
2022-08-25T11:04:55.202Z,45.60
2022-08-25T11:05:55.173Z,45.48
2022-08-25T11:06:55.164Z,45.65
2022-08-25T11:07:55.154Z,44.33
2022-08-25T11:08:55.144Z,43.84
2022-08-25T11:09:55.156Z,44.55
2022-08-25T11:10:55.123Z,44.77
2022-08-25T11:11:55.116Z,45.09
2022-08-25T11:12:55.104Z,45.28
2022-08-25T11:13:55.095Z,45.60
2022-08-25T11:14:55.087Z,45.70
2022-08-25T11:16:15.848Z,45.99
2022-08-25T11:16:56.099Z,45.79
2022-08-25T11:17:55.060Z,45.62
2022-08-25T11:18:55.043Z,45.81
2022-08-25T11:19:55.027Z,46.13
2022-08-25T11:20:55.017Z,46.33
2022-08-25T11:21:55.027Z,47.24
2022-08-25T11:22:54.996Z,47.04
2022-08-25T11:23:54.990Z,47.24
2022-08-25T11:24:54.988Z,46.82
2022-08-25T11:25:54.969Z,46.72
2022-08-25T11:26:54.978Z,46.84
2022-08-25T11:27:54.949Z,46.70
2022-08-25T11:28:54.953Z,46.53
2022-08-25T11:29:54.929Z,46.62
2022-08-25T11:30:54.954Z,46.53
2022-08-25T11:31:54.900Z,46.31
2022-08-25T11:32:54.910Z,45.81
2022-08-25T11:33:54.881Z,46.11
2022-08-25T11:34:54.871Z,46.31
2022-08-25T11:35:54.876Z,45.92
2022-08-25T11:36:54.843Z,45.30
2022-08-25T11:37:54.832Z,45.30
2022-08-25T11:38:54.835Z,45.30
2022-08-25T11:39:54.832Z,45.57
2022-08-25T11:40:54.803Z,45.09
2022-08-25T11:41:54.792Z,44.98
2022-08-25T11:42:54.785Z,45.28
2022-08-25T11:43:54.800Z,45.40
2022-08-25T11:44:55.015Z,45.60
2022-08-25T11:45:54.912Z,45.60
2022-08-25T11:46:54.735Z,45.70
2022-08-25T11:47:54.724Z,45.89
2022-08-25T11:48:54.717Z,45.50
2022-08-25T11:49:54.733Z,45.60
2022-08-25T11:50:54.695Z,44.89
2022-08-25T11:51:54.688Z,44.69
2022-08-25T11:52:55.675Z,44.87
2022-08-25T11:53:54.666Z,44.94
2022-08-25T11:54:54.654Z,44.35
2022-08-25T11:55:55.597Z,43.74
2022-08-25T11:56:54.636Z,43.33
2022-08-25T11:57:54.626Z,43.74
2022-08-25T11:58:54.609Z,43.55
2022-08-25T11:59:54.607Z,43.74
2022-08-25T12:00:54.608Z,43.26
2022-08-25T12:01:54.588Z,43.35
2022-08-25T12:02:57.359Z,43.55
2022-08-25T12:03:55.648Z,43.66
2022-08-25T12:04:54.631Z,43.76
2022-08-25T12:05:54.539Z,43.47
2022-08-25T12:06:54.550Z,43.35
2022-08-25T12:07:54.533Z,43.15
2022-08-25T12:08:54.508Z,43.57
2022-08-25T12:09:54.507Z,43.45
2022-08-25T12:10:54.489Z,43.45
2022-08-25T12:11:54.481Z,43.35
2022-08-25T12:12:54.521Z,43.47
2022-08-25T12:13:54.461Z,43.18
2022-08-25T12:14:54.450Z,43.66
2022-08-25T12:15:54.444Z,43.45
2022-08-25T12:16:54.471Z,43.04
2022-08-25T12:17:54.441Z,42.84
2022-08-25T12:18:54.413Z,42.55
2022-08-25T12:19:54.393Z,42.15
2022-08-25T12:20:54.394Z,42.15
2022-08-25T12:21:54.464Z,42.72
2022-08-25T12:22:54.372Z,41.92
2022-08-25T12:23:54.375Z,41.89
2022-08-25T12:24:54.353Z,41.97
2022-08-25T12:25:54.334Z,41.49
2022-08-25T12:26:54.453Z,41.09
2022-08-25T12:27:54.315Z,40.78
2022-08-25T12:28:54.306Z,40.88
2022-08-25T12:29:54.345Z,41.17
2022-08-25T12:30:54.315Z,40.19
2022-08-25T12:31:54.277Z,40.31
2022-08-25T12:32:54.266Z,40.62
2022-08-25T12:33:54.247Z,40.55
2022-08-25T12:34:54.245Z,40.84
2022-08-25T12:35:54.248Z,40.45
2022-08-25T12:36:54.218Z,40.37
2022-08-25T12:37:54.208Z,40.68
2022-08-25T12:38:54.198Z,41.19
2022-08-25T12:39:54.224Z,40.80
2022-08-25T12:40:54.199Z,41.08
2022-08-25T12:41:54.205Z,40.95
2022-08-25T12:42:54.180Z,40.86
2022-08-25T12:43:54.158Z,41.17
2022-08-25T12:44:54.141Z,41.68
2022-08-25T12:45:54.198Z,41.78
2022-08-25T12:46:54.131Z,42.00
2022-08-25T12:47:54.102Z,42.19
2022-08-25T12:48:54.099Z,42.79
2022-08-25T12:49:54.094Z,42.58
2022-08-25T12:50:54.158Z,42.39
2022-08-25T12:51:54.094Z,42.37